Time;durP1;ratioP1;P1;durP2;ratioP2;P2;SDS_P1;SDS_P2;PMS_P1;PMS_P2;Temp;Humidity;BMP_temperature;BMP_pressure;BME280_temperature;BME280_humidity;BME280_pressure;Samples;Min_cycle;Max_cycle;Signal;HPM_P1;HPM_P2
2023/03/27 00:00:37;;;;;;;0.60;0.60;;;;;;;12.81;50.40;99225.63;5094571;28;20198;-74
2023/03/27 00:03:04;;;;;;;0.50;0.50;;;;;;;12.73;50.53;99222.25;5094695;28;20194;-73
2023/03/27 00:05:31;;;;;;;0.60;0.60;;;;;;;12.60;51.21;99204.97;5093821;28;20213;-73
2023/03/27 00:08:00;;;;;;;0.60;0.60;;;;;;;12.61;51.39;99217.13;5094642;28;20209;-73
2023/03/27 00:10:28;;;;;;;0.70;0.70;;;;;;;12.59;50.90;99192.88;5094186;28;20201;-74
2023/03/27 00:12:55;;;;;;;0.70;0.70;;;;;;;12.58;51.12;99206.75;5094471;28;20649;-75
2023/03/27 00:15:22;;;;;;;0.70;0.70;;;;;;;12.47;51.73;99198.16;5093229;28;20229;-74
2023/03/27 00:17:51;;;;;;;0.80;0.80;;;;;;;12.49;51.55;99201.59;5094409;28;20194;-73
2023/03/27 00:20:21;;;;;;;0.60;0.60;;;;;;;12.58;51.66;99199.81;5094367;28;20245;-73
2023/03/27 00:22:54;;;;;;;0.60;0.60;;;;;;;12.40;51.53;99167.00;5086476;28;20637;-73
2023/03/27 00:25:22;;;;;;;0.80;0.80;;;;;;;12.40;51.52;99164.41;5093959;28;20229;-73
2023/03/27 00:27:50;;;;;;;0.65;0.65;;;;;;;12.50;52.09;99187.72;5093661;28;20198;-73
2023/03/27 00:30:17;;;;;;;0.80;0.80;;;;;;;12.39;51.98;99177.41;5094335;28;20198;-73
2023/03/27 00:32:44;;;;;;;0.65;0.65;;;;;;;12.45;51.56;99168.72;5094257;28;20210;-73
2023/03/27 00:35:12;;;;;;;0.70;0.70;;;;;;;12.02;51.31;99070.25;5093551;28;20229;-73
2023/03/27 00:37:39;;;;;;;0.63;0.63;;;;;;;12.64;51.10;99158.16;5093929;28;20259;-74
2023/03/27 00:40:07;;;;;;;0.60;0.60;;;;;;;12.66;51.79;99160.75;5093481;28;20614;-73
2023/03/27 00:42:35;;;;;;;0.90;0.90;;;;;;;12.71;50.59;99161.56;5093515;28;20194;-75
2023/03/27 00:45:04;;;;;;;0.70;0.70;;;;;;;12.65;50.90;99146.88;5093694;28;20194;-74
2023/03/27 00:47:33;;;;;;;0.60;0.60;;;;;;;12.67;51.34;99134.72;5093154;28;20202;-74
2023/03/27 00:50:05;;;;;;;0.70;0.70;;;;;;;12.75;51.31;99142.44;5093863;28;20198;-73
2023/03/27 00:52:33;;;;;;;0.70;0.70;;;;;;;12.67;51.30;99137.31;5091669;28;20217;-74
2023/03/27 00:55:04;;;;;;;0.70;0.70;;;;;;;12.55;51.65;99110.56;5092909;28;20222;-73
2023/03/27 00:57:31;;;;;;;0.60;0.60;;;;;;;12.63;51.58;99124.34;5093749;28;20202;-71
2023/03/27 01:00:08;;;;;;;0.70;0.70;;;;;;;12.45;51.08;99082.94;5086060;28;20237;-74
2023/03/27 01:02:36;;;;;;;0.70;0.70;;;;;;;12.64;51.20;99087.06;5092680;28;20210;-74
2023/03/27 01:05:03;;;;;;;1.08;1.08;;;;;;;12.62;50.79;99099.22;5092881;28;20194;-74
2023/03/27 01:07:30;;;;;;;0.70;0.70;;;;;;;12.70;50.97;99094.84;5054736;28;20201;-74
2023/03/27 01:09:57;;;;;;;0.70;0.70;;;;;;;12.60;51.83;99103.56;5080295;28;20202;-74
2023/03/27 01:12:36;;;;;;;0.70;0.70;;;;;;;12.69;51.28;99098.31;5088849;28;20268;-76
2023/03/27 01:15:19;;;;;;;0.65;0.65;;;;;;;12.66;51.77;99090.53;5092872;28;20217;-74
2023/03/27 01:18:10;;;;;;;0.80;0.80;;;;;;;12.66;51.13;99087.94;5092884;28;20829;-75
2023/03/27 01:21:25;;;;;;;0.80;0.80;;;;;;;12.56;51.53;99071.53;5093294;28;20205;-74
2023/03/27 01:24:36;;;;;;;0.88;0.88;;;;;;;12.51;51.48;99072.47;5021287;28;20309;-76
2023/03/27 01:27:15;;;;;;;0.85;0.85;;;;;;;12.43;51.72;99064.72;5088079;28;20191;-73
2023/03/27 01:30:11;;;;;;;0.70;0.70;;;;;;;12.41;51.81;99056.94;5041049;28;20202;-75
2023/03/27 01:33:09;;;;;;;0.70;0.70;;;;;;;12.11;51.65;98992.25;5011049;28;20201;-73
2023/03/27 01:36:17;;;;;;;0.60;0.60;;;;;;;12.40;52.21;99039.63;5009799;28;20228;-74
2023/03/27 01:39:17;;;;;;;0.70;0.70;;;;;;;12.40;51.74;99038.75;4914323;29;20208;-76
2023/03/27 01:41:52;;;;;;;0.63;0.63;;;;;;;12.47;50.85;99036.97;4913230;29;20212;-75
2023/03/27 01:44:31;;;;;;;0.60;0.60;;;;;;;12.60;51.45;99035.97;4913710;29;20279;-74
2023/03/27 01:47:06;;;;;;;0.70;0.70;;;;;;;12.67;50.37;99032.41;4907502;29;20208;-74
2023/03/27 01:49:39;;;;;;;0.70;0.70;;;;;;;12.59;50.64;99009.09;4913782;29;20207;-74
2023/03/27 01:52:10;;;;;;;0.70;0.70;;;;;;;12.69;50.48;99023.75;4914054;29;20259;-74
2023/03/27 01:54:42;;;;;;;0.90;0.90;;;;;;;12.74;50.61;99021.06;4913646;29;20236;-74
2023/03/27 01:57:16;;;;;;;1.17;1.17;;;;;;;12.68;51.11;99011.63;4913685;29;20204;-75
2023/03/27 01:59:47;;;;;;;0.70;0.70;;;;;;;12.58;50.70;99014.31;4913473;29;20739;-74
2023/03/27 02:02:19;;;;;;;0.80;0.80;;;;;;;12.48;51.08;98984.97;4913422;29;20228;-74
2023/03/27 02:04:50;;;;;;;0.60;0.60;;;;;;;12.53;50.78;99016.09;4912143;29;20204;-73
2023/03/27 02:07:23;;;;;;;0.63;0.63;;;;;;;12.53;51.07;99003.09;4915704;28;20204;-76
2023/03/27 02:09:55;;;;;;;0.70;0.70;;;;;;;12.49;51.17;98988.41;4970876;28;20198;-76
2023/03/27 02:12:26;;;;;;;0.52;0.52;;;;;;;12.54;50.33;98984.91;4970143;28;20226;-75
2023/03/27 02:14:56;;;;;;;0.70;0.70;;;;;;;12.51;50.48;98978.88;5026146;28;20799;-75
2023/03/27 02:17:25;;;;;;;0.70;0.70;;;;;;;12.51;50.21;98984.94;5091855;28;20197;-73
2023/03/27 02:19:58;;;;;;;0.70;0.70;;;;;;;12.56;50.02;98992.66;5088913;28;20721;-73
2023/03/27 02:22:25;;;;;;;0.60;0.60;;;;;;;12.45;50.15;98989.34;5090849;28;20198;-75
2023/03/27 02:24:55;;;;;;;0.60;0.60;;;;;;;12.58;49.83;98986.59;5091510;28;20198;-73
2023/03/27 02:27:32;;;;;;;0.70;0.70;;;;;;;12.60;49.59;98989.16;5091871;28;20209;-75
2023/03/27 02:30:09;;;;;;;0.70;0.70;;;;;;;12.64;49.98;98972.66;5091688;28;20198;-75
2023/03/27 02:32:47;;;;;;;0.65;0.65;;;;;;;12.62;49.66;98977.03;5052488;28;20194;-73
2023/03/27 02:35:28;;;;;;;0.60;0.60;;;;;;;12.72;49.84;98970.84;5082048;28;20209;-74
2023/03/27 02:38:04;;;;;;;0.70;0.70;;;;;;;12.60;49.41;98956.22;5076745;28;20676;-74
2023/03/27 02:40:43;;;;;;;0.70;0.70;;;;;;;12.69;49.43;98978.66;5084709;28;20208;-74
2023/03/27 02:43:16;;;;;;;0.80;0.80;;;;;;;12.63;49.66;98971.78;5083850;28;20203;-74
2023/03/27 02:45:51;;;;;;;0.70;0.70;;;;;;;12.70;49.00;98965.63;5087796;28;20263;-74
2023/03/27 02:48:27;;;;;;;0.70;0.70;;;;;;;12.64;49.31;98938.84;5091510;28;20197;-74
2023/03/27 02:50:59;;;;;;;0.60;0.60;;;;;;;12.66;49.32;98953.56;5090851;28;20221;-75
2023/03/27 02:53:29;;;;;;;0.80;0.80;;;;;;;12.74;49.55;98950.84;5088599;28;20198;-75
2023/03/27 02:56:00;;;;;;;0.70;0.70;;;;;;;12.64;49.81;98955.31;5087782;28;20230;-74
2023/03/27 02:58:32;;;;;;;0.60;0.60;;;;;;;12.69;49.91;98957.88;5091190;28;20592;-74
2023/03/27 03:01:00;;;;;;;0.70;0.70;;;;;;;12.59;49.59;98938.06;5090635;28;20198;-74
2023/03/27 03:03:33;;;;;;;0.50;0.50;;;;;;;12.91;51.94;98951.53;5090970;28;20501;-72
2023/03/27 03:06:03;;;;;;;0.70;0.70;;;;;;;12.71;50.71;98941.34;5090775;28;20194;-73
2023/03/27 03:08:30;;;;;;;0.70;0.70;;;;;;;12.71;50.59;98943.09;5056651;28;20198;-73
2023/03/27 03:11:02;;;;;;;0.80;0.80;;;;;;;12.76;50.12;98941.31;5090714;28;20267;-71
2023/03/27 03:13:29;;;;;;;0.70;0.70;;;;;;;12.80;50.50;98937.78;5091008;28;20237;-75
2023/03/27 03:15:56;;;;;;;0.63;0.63;;;;;;;12.76;50.51;98934.38;5083864;28;20214;-74
2023/03/27 03:18:23;;;;;;;0.80;0.80;;;;;;;13.16;53.94;98921.72;5088208;28;20443;-74
2023/03/27 03:20:52;;;;;;;0.60;0.60;;;;;;;13.01;52.70;98908.03;5094781;28;20256;-74
2023/03/27 03:23:20;;;;;;;0.60;0.60;;;;;;;12.93;52.21;98921.16;5080781;28;20210;-74
2023/03/27 03:25:49;;;;;;;0.70;0.70;;;;;;;12.89;51.76;98915.13;5095092;28;20202;-72
2023/03/27 03:28:18;;;;;;;0.60;0.60;;;;;;;12.89;51.45;98909.06;5092999;28;20210;-73
2023/03/27 03:30:49;;;;;;;0.80;0.80;;;;;;;12.87;51.34;98900.44;5093411;28;20244;-74
2023/03/27 03:33:17;;;;;;;0.60;0.60;;;;;;;12.84;51.31;98898.69;5059151;28;20317;-73
2023/03/27 03:35:47;;;;;;;0.60;0.60;;;;;;;12.82;51.46;98876.19;5094110;28;20226;-75
2023/03/27 03:38:23;;;;;;;0.60;0.60;;;;;;;12.92;50.66;98875.19;5090309;28;20293;-74
2023/03/27 03:40:54;;;;;;;0.70;0.70;;;;;;;12.94;50.77;98870.84;5095066;28;20206;-75
2023/03/27 03:43:25;;;;;;;0.60;0.60;;;;;;;13.06;50.47;98883.66;5094703;28;20213;-75
2023/03/27 03:45:52;;;;;;;0.63;0.63;;;;;;;13.14;51.17;98868.84;5090737;28;20269;-74
2023/03/27 03:48:20;;;;;;;0.70;0.70;;;;;;;13.01;50.51;98854.25;5091075;28;20653;-74
2023/03/27 03:50:48;;;;;;;0.70;0.70;;;;;;;13.16;50.09;98867.06;5086160;28;20195;-73
2023/03/27 03:53:16;;;;;;;0.80;0.80;;;;;;;13.17;50.10;98870.53;5086085;28;20198;-75
2023/03/27 03:55:43;;;;;;;0.82;0.82;;;;;;;13.15;50.28;98865.34;5090680;28;20237;-75
2023/03/27 03:58:10;;;;;;;0.70;0.70;;;;;;;13.16;49.73;98861.84;5093893;28;20209;-75
2023/03/27 04:00:39;;;;;;;0.70;0.70;;;;;;;13.24;49.74;98853.94;5092165;28;20221;-75
2023/03/27 04:03:08;;;;;;;0.70;0.70;;;;;;;13.21;49.80;98830.56;5090680;28;20197;-75
2023/03/27 04:05:36;;;;;;;0.70;0.70;;;;;;;13.24;49.75;98838.31;5087365;28;20198;-76
2023/03/27 04:08:05;;;;;;;0.60;0.60;;;;;;;13.20;49.98;98845.31;5086880;28;20307;-74
2023/03/27 04:10:33;;;;;;;0.60;0.60;;;;;;;13.23;49.50;98837.47;5089030;28;20293;-75
2023/03/27 04:13:00;;;;;;;0.60;0.60;;;;;;;13.30;49.32;98843.44;5089714;28;20198;-74
2023/03/27 04:15:27;;;;;;;0.60;0.60;;;;;;;13.36;49.21;98838.13;5092247;28;20226;-75
2023/03/27 04:17:56;;;;;;;0.70;0.70;;;;;;;13.53;49.42;98832.63;5093577;28;20606;-73
2023/03/27 04:20:25;;;;;;;0.63;0.63;;;;;;;13.56;49.20;98829.97;5092395;28;20285;-76
2023/03/27 04:22:53;;;;;;;0.70;0.70;;;;;;;13.58;49.52;98823.88;5091198;28;20255;-75
2023/03/27 04:25:21;;;;;;;0.65;0.65;;;;;;;13.66;49.40;98821.16;5085576;28;20206;-76
2023/03/27 04:27:50;;;;;;;0.73;0.73;;;;;;;13.75;49.44;98820.97;5093222;28;20267;-74
2023/03/27 04:30:21;;;;;;;0.70;0.70;;;;;;;13.68;49.63;98816.75;5036649;28;20242;-76
2023/03/27 04:32:49;;;;;;;0.60;0.60;;;;;;;13.68;49.91;98819.34;5086101;28;20725;-73
2023/03/27 04:35:18;;;;;;;0.70;0.70;;;;;;;13.62;50.45;98770.00;5088805;28;20230;-75
2023/03/27 04:37:45;;;;;;;0.80;0.80;;;;;;;13.77;50.49;98811.38;5093493;28;20236;-72
2023/03/27 04:40:14;;;;;;;0.60;0.60;;;;;;;13.71;50.91;98803.66;5094190;28;20213;-73
2023/03/27 04:42:43;;;;;;;0.60;0.60;;;;;;;13.71;52.00;98808.88;5094281;28;20210;-75
2023/03/27 04:45:12;;;;;;;0.80;0.80;;;;;;;13.83;51.68;98793.03;5094691;28;20202;-77
2023/03/27 04:47:39;;;;;;;0.60;0.60;;;;;;;13.90;51.49;98792.91;5078285;28;20576;-74
2023/03/27 04:50:07;;;;;;;0.70;0.70;;;;;;;13.85;51.84;98780.81;5093656;28;20202;-75
2023/03/27 04:52:36;;;;;;;0.63;0.63;;;;;;;14.00;51.74;98788.34;5093309;28;20194;-73
2023/03/27 04:55:04;;;;;;;0.70;0.70;;;;;;;14.05;51.58;98780.47;5058521;28;20194;-73
2023/03/27 04:57:31;;;;;;;0.70;0.70;;;;;;;14.05;52.22;98773.50;5093294;28;20198;-74
2023/03/27 04:59:58;;;;;;;0.60;0.60;;;;;;;14.30;52.22;98797.31;5093574;28;20233;-75
2023/03/27 05:02:26;;;;;;;0.60;0.60;;;;;;;14.30;51.87;98776.47;5093503;28;20202;-74
2023/03/27 05:04:57;;;;;;;0.63;0.63;;;;;;;14.33;52.28;98773.78;5081046;28;20250;-74
2023/03/27 05:07:25;;;;;;;0.77;0.77;;;;;;;14.48;52.35;98780.47;5089238;28;20705;-75
2023/03/27 05:09:56;;;;;;;0.80;0.80;;;;;;;14.52;52.00;98775.13;5087950;28;20238;-73
2023/03/27 05:12:22;;;;;;;0.60;0.60;;;;;;;14.61;53.15;98774.94;5084121;28;20210;-75
2023/03/27 05:14:49;;;;;;;0.90;0.90;;;;;;;14.59;52.90;98775.88;5087002;28;20209;-75
2023/03/27 05:17:17;;;;;;;0.80;0.80;;;;;;;14.67;52.87;98760.88;5092462;28;20264;-77
2023/03/27 05:19:44;;;;;;;0.70;0.70;;;;;;;14.67;53.27;98773.94;5092837;28;20202;-74
2023/03/27 05:22:11;;;;;;;0.60;0.60;;;;;;;14.49;53.65;98722.16;5041464;28;20203;-76
2023/03/27 05:24:38;;;;;;;0.60;0.60;;;;;;;14.75;54.16;98745.91;5083516;28;20198;-76
2023/03/27 05:27:07;;;;;;;0.70;0.70;;;;;;;14.74;54.70;98749.41;5092240;28;20232;-77
2023/03/27 05:29:34;;;;;;;0.70;0.70;;;;;;;14.70;55.40;98739.94;5092315;28;20198;-76
2023/03/27 05:32:01;;;;;;;2.83;1.20;;;;;;;14.69;55.56;98731.28;5092817;28;20617;-76
2023/03/27 05:34:28;;;;;;;0.70;0.70;;;;;;;14.85;56.33;98747.41;5092506;28;20281;-74
2023/03/27 05:36:56;;;;;;;0.80;0.80;;;;;;;14.91;56.78;98736.81;5079980;28;20226;-73
2023/03/27 05:39:25;;;;;;;0.70;0.70;;;;;;;15.04;57.27;98740.00;5091958;28;20656;-75
2023/03/27 05:41:52;;;;;;;0.60;0.60;;;;;;;15.42;56.73;98739.03;5092524;28;20206;-76
2023/03/27 05:44:22;;;;;;;0.70;0.70;;;;;;;15.80;55.88;98731.09;5092207;28;20356;-76
2023/03/27 05:46:49;;;;;;;0.60;0.60;;;;;;;15.84;55.87;98706.56;5092368;28;20198;-75
2023/03/27 05:49:16;;;;;;;0.68;0.68;;;;;;;16.26;55.52;98735.84;5089089;28;20206;-75
2023/03/27 05:51:43;;;;;;;0.82;0.82;;;;;;;16.41;55.16;98734.53;5081279;28;20225;-76
2023/03/27 05:54:10;;;;;;;0.70;0.70;;;;;;;15.96;56.43;98695.75;5076389;28;20257;-76
2023/03/27 05:56:37;;;;;;;0.70;0.70;;;;;;;16.22;56.49;98721.16;5079778;28;20229;-76
2023/03/27 05:59:03;;;;;;;0.70;0.70;;;;;;;16.12;57.29;98720.56;5092188;28;20233;-77
2023/03/27 06:01:33;;;;;;;0.80;0.80;;;;;;;16.11;58.32;98705.78;5077967;28;20198;-77
2023/03/27 06:04:00;;;;;;;0.65;0.65;;;;;;;16.20;58.06;98707.25;5091753;28;20248;-76
2023/03/27 06:06:27;;;;;;;0.77;0.77;;;;;;;16.20;58.76;98708.09;5091945;28;20202;-77
2023/03/27 06:08:54;;;;;;;0.70;0.70;;;;;;;16.32;59.19;98699.91;5080902;28;20202;-79
2023/03/27 06:11:21;;;;;;;0.70;0.70;;;;;;;16.18;60.47;98689.00;5086904;28;20680;-76
2023/03/27 06:13:48;;;;;;;0.70;0.70;;;;;;;16.32;60.43;98681.59;5028658;28;20212;-77
2023/03/27 06:16:15;;;;;;;0.60;0.60;;;;;;;16.25;61.30;98667.00;5091648;28;20222;-75
2023/03/27 06:18:43;;;;;;;1.95;1.35;;;;;;;16.37;61.95;98666.59;5091912;28;20210;-75
2023/03/27 06:21:10;;;;;;;0.60;0.60;;;;;;;16.48;61.22;98649.75;5091746;28;20636;-75
2023/03/27 06:23:37;;;;;;;1.17;1.17;;;;;;;16.48;62.41;98658.41;5091668;28;20625;-76
2023/03/27 06:26:04;;;;;;;0.70;0.70;;;;;;;16.65;61.77;98660.53;5091729;28;20202;-76
2023/03/27 06:28:31;;;;;;;0.65;0.65;;;;;;;16.41;62.15;98574.97;5091555;28;20681;-75
2023/03/27 06:30:58;;;;;;;0.65;0.65;;;;;;;16.65;61.75;98635.25;5091678;28;20209;-75
2023/03/27 06:33:26;;;;;;;0.60;0.60;;;;;;;16.84;61.65;98622.38;5077430;28;20213;-76
2023/03/27 06:35:58;;;;;;;0.52;0.52;;;;;;;16.99;61.69;98634.09;5091506;28;20226;-77
2023/03/27 06:38:26;;;;;;;1.75;1.05;;;;;;;17.02;62.41;98634.84;5090498;28;20228;-75
2023/03/27 06:40:54;;;;;;;1.08;1.08;;;;;;;17.23;61.90;98622.75;5078633;28;20645;-77
2023/03/27 06:43:21;;;;;;;0.60;0.60;;;;;;;17.13;62.07;98621.38;5091487;28;20234;-77
2023/03/27 06:45:49;;;;;;;0.63;0.63;;;;;;;17.45;62.43;98623.72;5091287;28;20189;-77
2023/03/27 06:48:18;;;;;;;0.60;0.60;;;;;;;17.61;62.16;98614.44;5091422;28;20699;-76
2023/03/27 06:50:45;;;;;;;0.70;0.70;;;;;;;17.67;61.62;98621.22;5086873;28;20217;-73
2023/03/27 06:53:16;;;;;;;0.60;0.60;;;;;;;17.90;64.35;98604.63;5081351;28;20202;-74
2023/03/27 06:55:43;;;;;;;0.60;0.60;;;;;;;17.82;63.30;98603.16;5091155;28;20285;-77
2023/03/27 06:58:13;;;;;;;0.60;0.60;;;;;;;17.59;62.47;98573.44;5090794;28;20201;-75
2023/03/27 07:00:40;;;;;;;0.60;0.60;;;;;;;17.89;62.83;98595.03;5091390;28;20198;-76
2023/03/27 07:03:10;;;;;;;0.60;0.60;;;;;;;17.88;62.52;98574.97;5091555;28;20224;-76
2023/03/27 07:05:39;;;;;;;0.60;0.60;;;;;;;18.02;62.65;98584.00;5056428;28;20202;-76
2023/03/27 07:08:09;;;;;;;0.60;0.60;;;;;;;18.07;61.79;98561.09;5092605;28;20202;-77
2023/03/27 07:10:38;;;;;;;0.60;0.60;;;;;;;18.15;61.54;98568.66;5099071;28;20242;-76
2023/03/27 07:13:06;;;;;;;0.60;0.60;;;;;;;18.26;61.28;98551.56;5086677;28;20202;-76
2023/03/27 07:15:34;;;;;;;0.68;0.68;;;;;;;18.41;60.33;98555.31;5100306;28;20194;-76
2023/03/27 07:18:02;;;;;;;0.60;0.60;;;;;;;18.67;59.64;98551.66;5100218;28;20236;-73
2023/03/27 07:20:31;;;;;;;0.60;0.60;;;;;;;18.75;65.46;98536.44;5095956;28;20212;-72
2023/03/27 07:22:59;;;;;;;0.60;0.60;;;;;;;19.14;64.32;98541.72;5091209;28;20280;-74
2023/03/27 07:25:26;;;;;;;0.55;0.55;;;;;;;19.28;60.58;98558.59;5076547;28;20198;-78
2023/03/27 07:27:59;;;;;;;0.70;0.70;;;;;;;18.68;58.42;98548.13;5090883;28;20206;-74
2023/03/27 07:30:26;;;;;;;0.65;0.65;;;;;;;18.69;58.12;98547.22;5090625;28;20237;-75
2023/03/27 07:32:53;;;;;;;0.60;0.60;;;;;;;18.74;57.49;98547.84;5090500;28;20206;-73
2023/03/27 07:35:20;;;;;;;0.60;0.60;;;;;;;18.89;57.70;98547.22;5090412;28;20236;-73
2023/03/27 07:37:47;;;;;;;0.80;0.80;;;;;;;18.98;68.35;98531.03;5090451;28;20218;-75
2023/03/27 07:40:14;;;;;;;0.60;0.60;;;;;;;19.07;58.25;98551.66;5090395;28;20798;-74
2023/03/27 07:42:44;;;;;;;0.60;0.60;;;;;;;19.09;57.88;98533.19;5090434;28;20230;-73
2023/03/27 07:45:13;;;;;;;0.60;0.60;;;;;;;18.93;58.87;98537.44;5090219;28;20251;-73
2023/03/27 07:47:40;;;;;;;0.60;0.60;;;;;;;19.23;57.70;98539.53;5090429;28;20708;-73
2023/03/27 07:50:10;;;;;;;0.60;0.60;;;;;;;19.28;57.54;98534.94;5077112;28;20210;-73
2023/03/27 07:52:39;;;;;;;0.70;0.70;;;;;;;18.90;58.11;98527.91;5039055;28;20205;-73
2023/03/27 07:55:07;;;;;;;0.70;0.70;;;;;;;19.17;56.96;98528.47;5090475;28;20202;-73
2023/03/27 07:57:38;;;;;;;0.50;0.50;;;;;;;19.23;56.57;98515.91;5090258;28;20541;-72
2023/03/27 08:00:10;;;;;;;0.85;0.85;;;;;;;18.64;56.76;98478.28;5090211;28;20265;-71
2023/03/27 08:02:38;;;;;;;0.60;0.60;;;;;;;18.94;58.04;98507.63;5087071;28;20190;-72
2023/03/27 08:05:07;;;;;;;0.70;0.70;;;;;;;19.05;56.57;98477.31;5094169;28;20294;-72
2023/03/27 08:07:35;;;;;;;0.70;0.70;;;;;;;19.47;55.20;98507.88;5093909;28;20599;-73
2023/03/27 08:10:03;;;;;;;0.60;0.60;;;;;;;19.42;53.31;98496.69;5094028;28;20821;-74
2023/03/27 08:12:31;;;;;;;0.80;0.80;;;;;;;19.56;51.06;98496.91;5093895;28;20213;-73
2023/03/27 08:14:58;;;;;;;0.60;0.60;;;;;;;19.66;49.72;98482.41;5090121;28;20206;-75
2023/03/27 08:17:26;;;;;;;0.60;0.60;;;;;;;19.78;49.65;98450.28;5083523;28;20229;-74
2023/03/27 08:19:54;;;;;;;0.65;0.65;;;;;;;20.29;47.80;98431.09;5093839;28;20233;-75
2023/03/27 08:22:22;;;;;;;0.60;0.60;;;;;;;20.81;48.19;98467.91;5093711;28;20206;-75
2023/03/27 08:24:48;;;;;;;2.92;1.70;;;;;;;21.09;47.96;98463.75;5093629;28;20209;-75
2023/03/27 08:27:16;;;;;;;0.63;0.63;;;;;;;21.00;47.00;98460.75;5093709;28;20190;-75
2023/03/27 08:29:43;;;;;;;0.60;0.60;;;;;;;21.26;46.78;98462.84;5094068;28;20284;-75
2023/03/27 08:32:11;;;;;;;0.70;0.70;;;;;;;21.55;46.93;98461.25;5079488;28;20199;-76
2023/03/27 08:34:39;;;;;;;0.60;0.60;;;;;;;21.78;46.31;98466.13;5046560;28;20199;-74
2023/03/27 08:37:08;;;;;;;0.60;0.60;;;;;;;21.66;45.32;98451.81;5091412;28;20221;-74
2023/03/27 08:39:35;;;;;;;0.70;0.70;;;;;;;21.96;42.58;98469.53;5083009;28;20257;-75
2023/03/27 08:42:05;;;;;;;0.77;0.77;;;;;;;22.01;41.80;98478.88;5089746;28;20210;-71
2023/03/27 08:44:33;;;;;;;0.60;0.60;;;;;;;21.75;42.15;98480.34;5093287;28;20229;-78
2023/03/27 08:47:05;;;;;;;0.77;0.77;;;;;;;21.76;42.90;98479.38;5092281;28;20213;-77
2023/03/27 08:49:36;;;;;;;0.63;0.63;;;;;;;21.86;42.37;98471.84;5081748;28;20198;-74
2023/03/27 08:52:08;;;;;;;1.63;1.20;;;;;;;21.63;42.92;98459.91;5078843;28;20207;-74
2023/03/27 08:54:38;;;;;;;0.80;0.80;;;;;;;21.59;43.02;98476.84;5093032;28;20545;-73
2023/03/27 08:57:17;;;;;;;0.70;0.70;;;;;;;21.28;43.32;98461.00;5092973;28;20233;-75
2023/03/27 08:59:44;;;;;;;0.60;0.60;;;;;;;21.45;43.25;98475.91;5084612;28;20262;-74
2023/03/27 09:02:23;;;;;;;0.60;0.60;;;;;;;21.29;43.86;98464.50;5087375;28;20206;-76
2023/03/27 09:04:58;;;;;;;0.60;0.60;;;;;;;21.36;44.21;98437.72;5085001;28;20213;-76
2023/03/27 09:07:33;;;;;;;0.60;0.60;;;;;;;21.44;43.44;98442.56;5051035;28;20685;-77
2023/03/27 09:10:09;;;;;;;0.60;0.60;;;;;;;21.64;44.17;98437.03;5093095;28;20613;-77
2023/03/27 09:12:57;;;;;;;0.60;0.60;;;;;;;21.82;43.24;98433.34;5092759;28;20205;-75
2023/03/27 09:15:28;;;;;;;0.57;0.57;;;;;;;21.64;43.17;98443.16;5010271;28;20212;-75
2023/03/27 09:18:00;;;;;;;0.73;0.73;;;;;;;21.75;43.55;98439.91;5010721;28;20267;-75
2023/03/27 09:20:33;;;;;;;0.95;0.95;;;;;;;22.03;43.76;98424.25;5010990;28;20205;-75
2023/03/27 09:23:05;;;;;;;0.80;0.80;;;;;;;22.23;41.76;98415.13;4963689;28;20248;-75
2023/03/27 09:25:38;;;;;;;0.70;0.70;;;;;;;21.53;41.28;98381.38;4997667;28;20237;-73
2023/03/27 09:28:15;;;;;;;0.70;0.70;;;;;;;21.91;41.32;98397.69;5010725;28;20212;-75
2023/03/27 09:30:42;;;;;;;0.60;0.60;;;;;;;22.10;40.68;98390.41;4991032;28;20201;-75
2023/03/27 09:33:11;;;;;;;0.70;0.70;;;;;;;22.14;40.40;98403.34;5003919;28;20236;-75
2023/03/27 09:35:39;;;;;;;0.80;0.80;;;;;;;22.03;39.71;98387.28;5004606;28;20661;-76
2023/03/27 09:38:27;;;;;;;0.70;0.70;;;;;;;21.80;39.28;98389.50;5002693;28;20232;-74
2023/03/27 09:40:59;;;;;;;0.70;0.70;;;;;;;22.17;38.80;98387.31;5010360;28;20232;-75
2023/03/27 09:43:28;;;;;;;0.60;0.60;;;;;;;22.35;38.76;98381.88;5010239;28;20675;-74
2023/03/27 09:45:57;;;;;;;0.70;0.70;;;;;;;22.32;38.71;98376.78;4997039;28;20707;-74
2023/03/27 09:48:33;;;;;;;0.70;0.70;;;;;;;22.16;38.82;98385.63;5010080;28;20211;-74
2023/03/27 09:51:01;;;;;;;0.93;0.93;;;;;;;22.04;38.12;98372.31;4996659;28;20200;-73
2023/03/27 09:53:28;;;;;;;0.70;0.70;;;;;;;22.02;38.74;98364.47;5080749;28;20202;-74
2023/03/27 09:55:58;;;;;;;0.70;0.70;;;;;;;22.37;39.16;98365.00;5056706;28;20202;-72
2023/03/27 09:58:33;;;;;;;0.70;0.70;;;;;;;22.37;38.72;98365.00;5092095;28;20245;-77
2023/03/27 10:01:14;;;;;;;0.68;0.68;;;;;;;22.40;38.98;98353.41;5092139;28;20198;-76
2023/03/27 10:03:47;;;;;;;1.20;1.10;;;;;;;22.61;38.42;98358.25;5092081;28;20224;-73
2023/03/27 10:06:16;;;;;;;0.60;0.60;;;;;;;22.92;38.94;98346.66;5091781;28;20204;-75
2023/03/27 10:08:48;;;;;;;0.57;0.57;;;;;;;23.26;37.79;98355.09;5091845;28;20213;-74
2023/03/27 10:11:19;;;;;;;0.80;0.80;;;;;;;22.82;37.64;98345.53;5090406;28;20195;-73
2023/03/27 10:13:48;;;;;;;0.60;0.60;;;;;;;23.32;37.53;98355.56;5079290;28;20241;-74
2023/03/27 10:16:16;;;;;;;0.70;0.70;;;;;;;23.00;37.82;98351.47;5091492;28;20210;-73
2023/03/27 10:18:47;;;;;;;0.70;0.70;;;;;;;22.89;37.56;98346.84;5091662;28;20287;-75
2023/03/27 10:21:24;;;;;;;0.80;0.80;;;;;;;22.78;38.15;98344.03;5091675;28;20210;-74
2023/03/27 10:23:51;;;;;;;0.60;0.60;;;;;;;22.20;38.39;98329.06;5057851;28;20226;-75
2023/03/27 10:26:21;;;;;;;0.68;0.68;;;;;;;22.81;38.43;98332.41;5090683;28;20734;-71
2023/03/27 10:28:51;;;;;;;0.60;0.60;;;;;;;23.05;38.21;98342.28;5091316;28;20229;-71
2023/03/27 10:31:29;;;;;;;0.70;0.70;;;;;;;23.47;37.93;98335.22;5091575;28;20703;-73
2023/03/27 10:33:57;;;;;;;0.60;0.60;;;;;;;23.21;37.75;98321.88;5091351;28;20200;-73
2023/03/27 10:36:25;;;;;;;0.70;0.70;;;;;;;23.14;38.96;98331.13;5091569;28;20222;-74
2023/03/27 10:38:56;;;;;;;0.70;0.70;;;;;;;23.03;37.36;98332.75;5091403;28;20221;-74
2023/03/27 10:41:26;;;;;;;0.60;0.60;;;;;;;23.08;37.75;98336.78;5091452;28;20198;-73
2023/03/27 10:43:55;;;;;;;0.70;0.70;;;;;;;23.38;37.24;98322.56;5091239;28;20198;-74
2023/03/27 10:46:25;;;;;;;0.70;0.70;;;;;;;23.46;38.14;98326.44;5091097;28;20204;-73
2023/03/27 10:49:02;;;;;;;0.70;0.70;;;;;;;23.67;36.89;98318.88;5090972;28;20213;-73
2023/03/27 10:51:37;;;;;;;0.70;0.70;;;;;;;23.63;37.68;98320.03;5091066;28;20202;-75
2023/03/27 10:54:15;;;;;;;0.50;0.50;;;;;;;23.52;37.36;98307.50;5091006;28;20197;-79
2023/03/27 10:56:53;;;;;;;0.70;0.70;;;;;;;23.72;37.04;98308.00;5092391;28;20194;-79
2023/03/27 10:59:26;;;;;;;0.70;0.70;;;;;;;23.90;36.15;98326.13;5039136;28;20237;-76
2023/03/27 11:01:57;;;;;;;0.60;0.60;;;;;;;22.63;37.39;98154.72;5091404;28;20217;-76
2023/03/27 11:04:34;;;;;;;0.60;0.60;;;;;;;23.74;37.14;98332.56;5091161;28;20201;-75
2023/03/27 11:07:05;;;;;;;0.60;0.60;;;;;;;23.67;36.94;98334.75;5091242;28;20198;-75
2023/03/27 11:09:37;;;;;;;0.70;0.70;;;;;;;23.22;36.96;98344.69;5091161;28;20590;-75
2023/03/27 11:12:10;;;;;;;0.68;0.68;;;;;;;23.40;37.24;98296.88;5091166;28;20194;-74
2023/03/27 11:14:46;;;;;;;0.70;0.70;;;;;;;23.05;36.87;98341.44;5090972;28;20757;-74
2023/03/27 11:17:17;;;;;;;0.60;0.60;;;;;;;22.99;37.55;98352.41;5091003;28;20257;-77
2023/03/27 11:19:51;;;;;;;0.70;0.70;;;;;;;22.94;37.77;98334.19;5091568;28;20197;-76
2023/03/27 11:22:25;;;;;;;0.60;0.60;;;;;;;22.80;38.19;98370.34;5088575;28;20241;-76
2023/03/27 11:24:56;;;;;;;0.70;0.70;;;;;;;22.37;38.65;98364.16;5091351;28;20525;-76
2023/03/27 11:27:30;;;;;;;0.70;0.70;;;;;;;21.94;40.18;98382.53;5091334;28;20201;-76
2023/03/27 11:30:05;;;;;;;0.60;0.60;;;;;;;21.50;40.09;98355.19;5091986;28;20202;-76
2023/03/27 11:32:38;;;;;;;0.60;0.60;;;;;;;21.43;41.83;98369.66;5094621;28;20197;-76
2023/03/27 11:35:12;;;;;;;0.70;0.70;;;;;;;21.12;40.64;98363.44;5101418;28;20200;-78
2023/03/27 11:37:45;;;;;;;0.70;0.70;;;;;;;20.75;40.37;98393.56;5099485;28;20286;-76
2023/03/27 11:40:18;;;;;;;0.57;0.57;;;;;;;20.40;42.17;98398.97;5102295;28;20202;-77
2023/03/27 11:42:47;;;;;;;0.70;0.70;;;;;;;20.33;43.81;98421.28;5098691;28;20751;-75
2023/03/27 11:45:17;;;;;;;0.70;0.70;;;;;;;19.79;47.22;98421.28;5094696;28;20631;-74
2023/03/27 11:47:58;;;;;;;0.70;0.70;;;;;;;19.66;49.85;98412.25;5094839;28;20198;-75
2023/03/27 11:50:43;;;;;;;0.65;0.65;;;;;;;19.64;55.76;98400.97;5095263;28;20194;-76